This is the latest recevied weather packets stored in our database for station/object Dunnningn. If no packets are shown the sender has not sent any weather packets the latest 10 day(s).
| Time | Temp. | Humidity | Pressure | Rain* | Wind** | Luminosity | Snow |
|---|---|---|---|---|---|---|---|
| 1777894331 | 19.44° C | 44% | 1013.1 hPa | 0 mm | - | - | - |
| 1777892530 | 20° C | 41% | 1013.4 hPa | 0 mm | - | - | - |
| 1777890735 | 18.33° C | 44% | 1013.7 hPa | 0 mm | - | - | - |
| 1777888932 | 18.33° C | 46% | 1013.7 hPa | 0 mm | - | - | - |
| 1777887130 | 17.78° C | 46% | 1013.9 hPa | 0 mm | - | - | - |
| 1777885331 | 17.78° C | 49% | 1014.1 hPa | 0 mm | - | - | - |
| 1777883533 | 17.78° C | 46% | 1014.1 hPa | 0 mm | - | - | - |
| 1777881731 | 17.22° C | 56% | 1014.2 hPa | 0 mm | - | - | - |
| 1777879930 | 14.44° C | 68% | 1014.2 hPa | 0 mm | - | - | - |
| 1777878132 | 12.78° C | 70% | 1014.2 hPa | 0 mm | - | - | - |
| 1777876331 | 11.67° C | 74% | 1014 hPa | 0 mm | - | - | - |
| 1777874532 | 10.56° C | 77% | 1014.1 hPa | 0 mm | - | - | - |
| 1777872731 | 8.89° C | 81% | 1014.1 hPa | 0 mm | - | - | - |
| 1777870930 | 8.33° C | 81% | 1014.1 hPa | 0 mm | - | - | - |
| 1777869131 | 8.33° C | 80% | 1014.1 hPa | 0 mm | - | - | - |
| 1777867331 | 8.89° C | 78% | 1014.2 hPa | 0 mm | - | - | - |
| 1777865531 | 9.44° C | 76% | 1014.6 hPa | 0 mm | - | - | - |
| 1777863732 | 10° C | 73% | 1014.5 hPa | 0 mm | - | - | - |
| 1777861931 | 10.56° C | 72% | 1014.4 hPa | 0 mm | - | - | - |
| 1777860132 | 11.11° C | 69% | 1014.6 hPa | 0 mm | - | - | - |
| 1777858331 | 11.67° C | 68% | 1014.5 hPa | 0 mm | - | - | - |
| 1777856531 | 12.22° C | 67% | 1014.5 hPa | 0 mm | - | - | - |
| 1777854730 | 12.22° C | 67% | 1014.6 hPa | 0 mm | - | - | - |
| 1777852928 | 12.22° C | 65% | 1014.6 hPa | 0 mm | - | - | - |
| 1777851129 | 12.78° C | 63% | 1014.7 hPa | 0 mm | - | - | - |
* Rain since midnight (hover to see other rain measurements)
** Current wind speed in m/s (hover to see current wind gust speed)